createdAt,value
2019-06-15T00:01:45.119Z,17.80
2019-06-15T00:04:15.609Z,17.80
2019-06-15T00:06:46.001Z,17.80
2019-06-15T00:09:16.267Z,17.90
2019-06-15T00:11:46.529Z,17.90
2019-06-15T00:14:16.884Z,18.00
2019-06-15T00:16:47.287Z,18.10
2019-06-15T00:19:17.641Z,18.10
2019-06-15T00:21:47.924Z,18.10
2019-06-15T00:24:18.197Z,18.10
2019-06-15T00:26:48.462Z,18.10
2019-06-15T00:29:18.808Z,18.10
2019-06-15T00:31:49.124Z,18.10
2019-06-15T00:34:21.118Z,18.10
2019-06-15T00:36:51.414Z,18.00
2019-06-15T00:39:21.742Z,17.90
2019-06-15T00:41:52.089Z,17.90
2019-06-15T00:44:22.449Z,17.80
2019-06-15T00:46:52.745Z,17.80
2019-06-15T00:49:23.013Z,17.80
2019-06-15T00:51:53.406Z,17.80
2019-06-15T00:54:23.705Z,17.80
2019-06-15T00:56:54.045Z,17.80
2019-06-15T00:59:24.291Z,17.90
2019-06-15T01:01:54.652Z,17.80
2019-06-15T01:04:24.953Z,17.80
2019-06-15T01:06:55.292Z,17.70
2019-06-15T01:09:25.543Z,17.70
2019-06-15T01:11:58.186Z,17.70
2019-06-15T01:14:28.518Z,17.70
2019-06-15T01:17:00.430Z,17.80
2019-06-15T01:19:30.876Z,17.70
2019-06-15T01:22:01.138Z,17.70
2019-06-15T01:24:32.970Z,17.70
2019-06-15T01:27:03.438Z,17.70
2019-06-15T01:29:33.750Z,17.70
2019-06-15T01:32:05.575Z,17.70
2019-06-15T01:34:36.071Z,17.70
2019-06-15T01:37:07.697Z,17.60
2019-06-15T01:39:38.187Z,17.50
2019-06-15T01:42:09.135Z,17.50
2019-06-15T01:44:39.511Z,17.50
2019-06-15T01:47:09.914Z,17.50
2019-06-15T01:49:41.836Z,17.60
2019-06-15T01:52:12.420Z,17.60
2019-06-15T01:54:42.762Z,17.70
2019-06-15T01:57:13.118Z,17.70
2019-06-15T01:59:43.479Z,17.70
2019-06-15T02:02:14.355Z,17.70
2019-06-15T02:04:44.744Z,17.70
2019-06-15T02:07:15.010Z,17.60
2019-06-15T02:09:45.435Z,17.60
2019-06-15T02:12:15.805Z,17.60
2019-06-15T02:14:47.483Z,17.60
2019-06-15T02:17:17.711Z,17.50
2019-06-15T02:19:49.875Z,17.50
2019-06-15T02:22:20.230Z,17.50
2019-06-15T02:24:50.738Z,17.50
2019-06-15T02:27:21.202Z,17.60
2019-06-15T02:29:51.645Z,17.60
2019-06-15T02:32:23.254Z,17.70
2019-06-15T02:34:54.990Z,17.70
2019-06-15T02:37:25.360Z,17.70
2019-06-15T02:39:55.925Z,17.60
2019-06-15T02:42:26.290Z,17.50
2019-06-15T02:44:56.635Z,17.50
2019-06-15T02:47:27.061Z,17.40
2019-06-15T02:49:57.394Z,17.30
2019-06-15T02:52:33.959Z,17.30
2019-06-15T02:55:06.809Z,17.20
2019-06-15T02:57:37.190Z,17.30
2019-06-15T03:00:07.692Z,17.20
2019-06-15T03:02:37.995Z,17.20
2019-06-15T03:05:08.644Z,17.20
2019-06-15T03:07:38.995Z,17.20
2019-06-15T03:10:10.234Z,17.20
2019-06-15T03:12:40.710Z,17.20
2019-06-15T03:15:11.406Z,17.10
2019-06-15T03:17:41.662Z,17.10
2019-06-15T03:20:12.432Z,17.10
2019-06-15T03:22:42.654Z,17.10
2019-06-15T03:25:14.787Z,17.10
2019-06-15T03:27:45.022Z,17.10
2019-06-15T03:30:15.486Z,17.20
2019-06-15T03:32:45.827Z,17.20
2019-06-15T03:35:18.615Z,17.20
2019-06-15T03:37:49.127Z,17.20
2019-06-15T03:40:20.832Z,17.10
2019-06-15T03:42:51.730Z,17.10
2019-06-15T03:45:22.409Z,17.10
2019-06-15T03:47:52.809Z,17.00
2019-06-15T03:50:23.240Z,17.10
2019-06-15T03:52:53.593Z,17.10
2019-06-15T03:55:23.810Z,17.10
2019-06-15T03:57:54.274Z,17.10
2019-06-15T04:00:44.739Z,17.00
2019-06-15T04:03:16.528Z,17.10
2019-06-15T04:05:46.767Z,17.10
2019-06-15T04:08:17.499Z,17.10
2019-06-15T04:10:47.725Z,17.10
2019-06-15T04:13:18.068Z,17.10
2019-06-15T04:15:48.477Z,17.20
2019-06-15T04:18:18.931Z,17.20
2019-06-15T04:20:49.203Z,17.20
2019-06-15T04:23:21.107Z,17.30
2019-06-15T04:25:53.625Z,17.30
2019-06-15T04:28:24.194Z,17.30
2019-06-15T04:30:55.996Z,17.30
2019-06-15T04:33:26.563Z,17.40
2019-06-15T04:35:56.778Z,17.40
2019-06-15T04:38:27.204Z,17.50
2019-06-15T04:40:57.588Z,17.50
2019-06-15T04:43:27.872Z,17.50
2019-06-15T04:45:58.229Z,17.50
2019-06-15T04:48:30.091Z,17.60
2019-06-15T04:51:00.333Z,17.60
2019-06-15T04:53:30.602Z,17.60
2019-06-15T04:56:00.989Z,17.60
2019-06-15T04:58:31.276Z,17.70
2019-06-15T05:01:01.631Z,17.70
2019-06-15T05:03:31.959Z,17.80
2019-06-15T05:06:02.316Z,17.90
2019-06-15T05:08:32.844Z,17.90
2019-06-15T05:11:03.806Z,17.80
2019-06-15T05:13:34.250Z,17.80
2019-06-15T05:16:04.591Z,17.80
2019-06-15T05:18:34.950Z,17.80
2019-06-15T05:21:05.347Z,17.90
2019-06-15T05:23:35.600Z,18.00
2019-06-15T05:26:06.097Z,18.00
2019-06-15T05:28:36.376Z,18.00
2019-06-15T05:31:06.747Z,18.10
2019-06-15T05:33:37.223Z,18.00
2019-06-15T05:36:07.623Z,18.00
2019-06-15T05:38:37.934Z,18.00
2019-06-15T05:41:08.242Z,18.10
2019-06-15T05:43:38.563Z,18.00
2019-06-15T05:46:08.865Z,18.00
2019-06-15T05:48:39.080Z,18.00
2019-06-15T05:51:09.369Z,18.00
2019-06-15T05:53:39.752Z,18.10
2019-06-15T05:56:10.032Z,18.10
2019-06-15T05:58:41.931Z,18.00
2019-06-15T06:01:12.438Z,18.10
2019-06-15T06:03:42.784Z,18.10
2019-06-15T06:06:13.033Z,18.10
2019-06-15T06:08:43.434Z,18.20
2019-06-15T06:11:13.934Z,18.40
2019-06-15T06:13:44.266Z,18.50
2019-06-15T06:16:14.547Z,18.80
2019-06-15T06:18:44.855Z,19.00
2019-06-15T06:21:15.177Z,19.20
2019-06-15T06:23:45.580Z,19.30
2019-06-15T06:26:15.833Z,19.40
2019-06-15T06:28:56.915Z,19.40
2019-06-15T06:31:18.191Z,19.40
2019-06-15T06:33:48.428Z,19.50
2019-06-15T06:36:18.737Z,19.60
2019-06-15T06:38:49.062Z,19.80
2019-06-15T06:41:19.367Z,19.90
2019-06-15T06:43:50.257Z,20.00
2019-06-15T06:46:20.753Z,20.20
2019-06-15T06:48:51.077Z,20.10
2019-06-15T06:51:21.341Z,20.10
2019-06-15T06:53:51.658Z,20.10
2019-06-15T06:56:21.939Z,20.10
2019-06-15T06:58:52.425Z,20.20
2019-06-15T07:01:23.207Z,20.50
2019-06-15T07:03:55.012Z,20.80
2019-06-15T07:06:25.311Z,20.80
2019-06-15T07:08:55.778Z,21.10
2019-06-15T07:11:26.126Z,21.20
2019-06-15T07:13:57.738Z,21.40
2019-06-15T07:16:28.324Z,21.60
2019-06-15T07:18:58.920Z,21.60
2019-06-15T07:21:31.103Z,21.70
2019-06-15T07:24:01.764Z,21.70
2019-06-15T07:26:32.012Z,21.70
2019-06-15T07:29:02.682Z,21.70
2019-06-15T07:31:32.956Z,21.90
2019-06-15T07:34:03.430Z,22.20
2019-06-15T07:36:33.729Z,22.40
2019-06-15T07:39:05.585Z,22.40
2019-06-15T07:41:35.907Z,22.70
2019-06-15T07:44:06.348Z,23.00
2019-06-15T07:46:36.602Z,23.30
2019-06-15T07:49:06.946Z,23.40
2019-06-15T07:51:37.281Z,23.90
2019-06-15T07:54:07.665Z,24.40
2019-06-15T07:56:38.223Z,24.70
2019-06-15T07:59:08.628Z,25.20
2019-06-15T08:01:38.891Z,25.20
2019-06-15T08:04:10.860Z,25.10
2019-06-15T08:06:43.176Z,24.70
2019-06-15T08:09:13.628Z,24.50
2019-06-15T08:11:46.446Z,24.30
2019-06-15T08:14:16.759Z,24.10
2019-06-15T08:16:47.287Z,23.70
2019-06-15T08:19:17.750Z,23.30
2019-06-15T08:21:48.048Z,23.00
2019-06-15T08:24:18.304Z,23.00
2019-06-15T08:26:48.586Z,23.00
2019-06-15T08:29:19.198Z,22.70
2019-06-15T08:31:49.828Z,22.70
2019-06-15T08:34:21.704Z,23.00
2019-06-15T08:36:52.197Z,23.50
2019-06-15T08:39:22.964Z,23.60
2019-06-15T08:41:54.987Z,23.20
2019-06-15T08:44:26.285Z,22.80
2019-06-15T08:46:59.308Z,22.60
2019-06-15T08:49:28.653Z,22.70
2019-06-15T08:51:59.104Z,23.00
2019-06-15T08:54:31.215Z,23.40
2019-06-15T08:57:08.894Z,23.50
2019-06-15T08:59:40.851Z,23.50
2019-06-15T09:02:11.790Z,23.50
2019-06-15T09:04:42.067Z,23.70
2019-06-15T09:07:12.426Z,23.60
2019-06-15T09:09:42.751Z,23.70
2019-06-15T09:12:13.185Z,23.70
2019-06-15T09:14:46.356Z,23.80
2019-06-15T09:17:16.770Z,23.70
2019-06-15T09:19:47.088Z,23.60
2019-06-15T09:22:17.489Z,23.50
2019-06-15T09:24:47.940Z,23.50
2019-06-15T09:27:18.422Z,23.70
2019-06-15T09:29:49.545Z,23.70
2019-06-15T09:32:19.955Z,23.90
2019-06-15T09:34:50.420Z,23.90
2019-06-15T09:37:21.070Z,24.10
2019-06-15T09:39:52.045Z,24.10
2019-06-15T09:42:23.024Z,23.90
2019-06-15T09:44:53.723Z,23.80
2019-06-15T09:47:24.249Z,23.80
2019-06-15T09:49:54.950Z,23.70
2019-06-15T09:52:25.590Z,23.60
2019-06-15T09:54:56.253Z,23.70
2019-06-15T09:57:26.890Z,23.90
2019-06-15T09:59:57.437Z,23.70
2019-06-15T10:02:28.203Z,23.70
2019-06-15T10:04:58.971Z,23.60
2019-06-15T10:07:29.296Z,23.50
2019-06-15T10:10:01.692Z,23.40
2019-06-15T10:12:32.645Z,23.40
2019-06-15T10:15:03.798Z,23.40
2019-06-15T10:17:34.257Z,23.30
2019-06-15T10:20:05.571Z,23.00
2019-06-15T10:22:36.086Z,22.70
2019-06-15T10:25:07.040Z,22.50
2019-06-15T10:27:42.333Z,22.10
2019-06-15T10:30:24.577Z,22.00
2019-06-15T10:32:55.719Z,22.00
2019-06-15T10:35:26.957Z,21.90
2019-06-15T10:37:57.805Z,22.00
2019-06-15T10:40:28.576Z,22.20
2019-06-15T10:42:59.750Z,22.50
2019-06-15T10:45:30.815Z,22.70
2019-06-15T10:48:01.482Z,22.70
2019-06-15T10:50:32.367Z,22.80
2019-06-15T10:53:03.260Z,22.80
2019-06-15T10:55:33.856Z,22.80
2019-06-15T10:58:06.983Z,22.90
2019-06-15T11:00:37.478Z,23.20
2019-06-15T11:03:08.111Z,23.50
2019-06-15T11:05:38.979Z,23.60
2019-06-15T11:08:09.649Z,23.70
2019-06-15T11:11:02.735Z,23.60
2019-06-15T11:13:33.394Z,23.10
2019-06-15T11:16:03.858Z,23.00
2019-06-15T11:18:34.572Z,22.90
2019-06-15T11:21:05.185Z,22.70
2019-06-15T11:23:37.333Z,22.50
2019-06-15T11:26:07.785Z,22.40
2019-06-15T11:28:38.366Z,22.20
2019-06-15T11:31:08.734Z,22.00
2019-06-15T11:33:39.038Z,21.80
2019-06-15T11:36:09.340Z,21.60
2019-06-15T11:38:39.794Z,21.60
2019-06-15T11:41:10.395Z,21.60
2019-06-15T11:43:40.737Z,21.60
2019-06-15T11:46:12.063Z,21.80
2019-06-15T11:48:43.183Z,22.00
2019-06-15T11:51:13.613Z,22.30
2019-06-15T11:53:44.077Z,22.80
2019-06-15T11:56:14.628Z,23.20
2019-06-15T11:58:49.497Z,23.20
2019-06-15T12:01:20.903Z,23.40
2019-06-15T12:03:51.576Z,23.40
2019-06-15T12:06:22.230Z,23.20
2019-06-15T12:08:52.708Z,23.40
2019-06-15T12:11:23.469Z,23.20
2019-06-15T12:13:54.017Z,23.30
2019-06-15T12:16:32.195Z,23.50
2019-06-15T12:19:02.826Z,23.70
2019-06-15T12:21:33.319Z,24.00
2019-06-15T12:24:03.764Z,24.00
2019-06-15T12:26:34.777Z,24.00
2019-06-15T12:29:07.813Z,24.00
2019-06-15T12:31:41.549Z,24.00
2019-06-15T12:34:12.123Z,23.90
2019-06-15T12:36:42.692Z,24.20
2019-06-15T12:39:13.186Z,24.20
2019-06-15T12:41:44.174Z,24.00
2019-06-15T12:44:16.426Z,23.70
2019-06-15T12:46:46.948Z,23.90
2019-06-15T12:49:18.555Z,24.10
2019-06-15T12:52:07.036Z,24.40
2019-06-15T12:54:39.039Z,24.50
2019-06-15T12:57:10.074Z,24.60
2019-06-15T12:59:40.593Z,24.50
2019-06-15T13:02:11.154Z,24.50
2019-06-15T13:04:41.620Z,24.40
2019-06-15T13:07:12.219Z,24.20
2019-06-15T13:09:42.817Z,23.90
2019-06-15T13:12:13.493Z,23.70
2019-06-15T13:14:44.001Z,23.40
2019-06-15T13:17:15.125Z,23.30
2019-06-15T13:19:48.441Z,23.30
2019-06-15T13:22:18.903Z,23.50
2019-06-15T13:24:49.386Z,23.70
2019-06-15T13:27:19.823Z,23.90
2019-06-15T13:29:50.402Z,24.10
2019-06-15T13:32:20.941Z,24.20
2019-06-15T13:34:51.442Z,24.20
2019-06-15T13:37:21.813Z,24.00
2019-06-15T13:39:52.275Z,23.80
2019-06-15T13:42:22.845Z,23.80
2019-06-15T13:44:53.257Z,23.70
2019-06-15T13:47:23.620Z,23.70
2019-06-15T13:49:54.039Z,23.70
2019-06-15T13:52:24.435Z,23.50
2019-06-15T13:54:56.893Z,23.30
2019-06-15T13:57:27.442Z,23.30
2019-06-15T13:59:59.436Z,23.30
2019-06-15T14:02:30.074Z,23.50
2019-06-15T14:05:00.622Z,23.60
2019-06-15T14:07:31.302Z,23.70
2019-06-15T14:10:01.580Z,23.70
2019-06-15T14:12:32.596Z,23.60
2019-06-15T14:15:03.134Z,23.50
2019-06-15T14:17:33.631Z,23.50
2019-06-15T14:20:04.208Z,23.50
2019-06-15T14:22:34.934Z,23.60
2019-06-15T14:25:06.186Z,23.60
2019-06-15T14:27:36.681Z,23.50
2019-06-15T14:30:08.320Z,23.60
2019-06-15T14:32:38.898Z,23.90
2019-06-15T14:35:09.596Z,24.00
2019-06-15T14:37:41.623Z,24.00
2019-06-15T14:40:12.261Z,23.90
2019-06-15T14:42:42.658Z,23.70
2019-06-15T14:45:13.041Z,23.80
2019-06-15T14:47:43.456Z,23.80
2019-06-15T14:50:14.267Z,23.70
2019-06-15T14:52:45.153Z,23.70
2019-06-15T14:55:16.019Z,23.60
2019-06-15T14:57:46.487Z,23.60
2019-06-15T15:00:18.050Z,23.60
2019-06-15T15:02:48.472Z,23.60
2019-06-15T15:05:19.084Z,23.50
2019-06-15T15:07:49.437Z,23.50
2019-06-15T15:10:20.348Z,23.50
2019-06-15T15:12:50.785Z,23.70
2019-06-15T15:15:21.103Z,23.80
2019-06-15T15:17:51.718Z,23.80
2019-06-15T15:20:22.437Z,23.90
2019-06-15T15:22:56.724Z,24.00
2019-06-15T15:25:26.604Z,23.90
2019-06-15T15:27:57.302Z,23.90
2019-06-15T15:30:38.550Z,23.80
2019-06-15T15:33:09.096Z,23.80
2019-06-15T15:35:39.450Z,24.00
2019-06-15T15:38:11.576Z,24.00
2019-06-15T15:40:42.044Z,24.10
2019-06-15T15:43:12.474Z,24.30
2019-06-15T15:45:43.060Z,24.40
2019-06-15T15:48:20.715Z,24.40
2019-06-15T15:50:49.138Z,24.40
2019-06-15T15:53:20.092Z,24.30
2019-06-15T15:55:50.642Z,24.20
2019-06-15T15:58:21.392Z,24.20
2019-06-15T16:00:53.415Z,24.40
2019-06-15T16:03:26.474Z,24.40
2019-06-15T16:05:56.672Z,24.50
2019-06-15T16:08:28.477Z,24.40
2019-06-15T16:10:59.230Z,24.30
2019-06-15T16:13:29.716Z,24.20
2019-06-15T16:16:00.126Z,24.30
2019-06-15T16:18:30.626Z,24.40
2019-06-15T16:21:01.248Z,24.40
2019-06-15T16:23:31.758Z,24.30
2019-06-15T16:26:03.211Z,24.40
2019-06-15T16:28:33.610Z,24.40
2019-06-15T16:31:12.490Z,24.30
2019-06-15T16:33:37.308Z,24.40
2019-06-15T16:36:07.838Z,24.20
2019-06-15T16:38:38.611Z,24.00
2019-06-15T16:41:11.440Z,23.80
2019-06-15T16:43:41.987Z,23.70
2019-06-15T16:46:12.550Z,23.60
2019-06-15T16:48:43.077Z,23.60
2019-06-15T16:51:13.741Z,23.60
2019-06-15T16:53:44.309Z,23.60
2019-06-15T16:56:16.606Z,23.50
2019-06-15T16:58:47.234Z,23.70
2019-06-15T17:01:19.426Z,23.70
2019-06-15T17:03:49.991Z,23.80
2019-06-15T17:06:20.484Z,23.80
2019-06-15T17:08:50.898Z,23.60
2019-06-15T17:11:22.640Z,23.50
2019-06-15T17:13:53.133Z,23.40
2019-06-15T17:16:25.918Z,23.30
2019-06-15T17:18:58.833Z,23.20
2019-06-15T17:21:29.824Z,23.20
2019-06-15T17:24:00.399Z,23.20
2019-06-15T17:26:30.956Z,23.20
2019-06-15T17:29:02.936Z,23.10
2019-06-15T17:31:33.824Z,23.00
2019-06-15T17:34:04.306Z,22.90
2019-06-15T17:36:36.775Z,22.90
2019-06-15T17:39:08.779Z,22.80
2019-06-15T17:41:39.472Z,22.90
2019-06-15T17:44:09.920Z,22.90
2019-06-15T17:46:40.374Z,23.00
2019-06-15T17:49:10.961Z,23.10
2019-06-15T17:51:41.450Z,23.20
2019-06-15T17:54:11.955Z,23.30
2019-06-15T17:56:42.504Z,23.40
2019-06-15T17:59:12.976Z,23.40
2019-06-15T18:01:54.553Z,23.40
2019-06-15T18:04:37.399Z,23.40
2019-06-15T18:07:19.843Z,23.20
2019-06-15T18:10:02.253Z,23.30
2019-06-15T18:12:46.746Z,23.30
2019-06-15T18:15:28.029Z,23.30
2019-06-15T18:18:09.990Z,23.20
2019-06-15T18:20:51.856Z,23.20
2019-06-15T18:23:33.663Z,23.20
2019-06-15T18:26:17.004Z,23.20
2019-06-15T18:28:59.064Z,23.20
2019-06-15T18:31:40.988Z,23.20
2019-06-15T18:34:23.290Z,23.10
2019-06-15T18:37:07.594Z,23.00
2019-06-15T18:39:49.468Z,22.90
2019-06-15T18:42:31.657Z,22.80
2019-06-15T18:45:15.884Z,22.70
2019-06-15T18:47:57.689Z,22.70
2019-06-15T18:50:39.998Z,22.60
2019-06-15T18:53:22.100Z,22.60
2019-06-15T18:56:06.846Z,22.50
2019-06-15T18:58:48.261Z,22.50
2019-06-15T19:01:30.313Z,22.40
2019-06-15T19:04:24.691Z,22.40
2019-06-15T19:06:56.459Z,22.40
2019-06-15T19:09:38.170Z,22.30
2019-06-15T19:12:20.984Z,22.30
2019-06-15T19:15:03.051Z,22.20
2019-06-15T19:17:46.388Z,22.20
2019-06-15T19:20:28.016Z,22.10
2019-06-15T19:23:09.721Z,22.00
2019-06-15T19:25:40.046Z,21.90
2019-06-15T19:28:29.323Z,21.90
2019-06-15T19:31:11.274Z,21.90
2019-06-15T19:33:53.513Z,21.80
2019-06-15T19:36:36.621Z,21.80
2019-06-15T19:39:18.912Z,21.70
2019-06-15T19:42:00.520Z,21.70
2019-06-15T19:44:42.791Z,21.70
2019-06-15T19:47:26.534Z,21.60
2019-06-15T19:50:10.007Z,21.60
2019-06-15T19:52:51.598Z,21.50
2019-06-15T19:55:36.091Z,21.50
2019-06-15T19:58:18.427Z,21.40
2019-06-15T20:01:01.623Z,21.30
2019-06-15T20:03:46.325Z,21.30
2019-06-15T20:06:28.741Z,21.30
2019-06-15T20:09:12.323Z,21.30
2019-06-15T20:11:46.859Z,21.20
2019-06-15T20:14:36.586Z,21.20
2019-06-15T20:17:17.928Z,21.20
2019-06-15T20:20:01.123Z,21.10
2019-06-15T20:22:46.762Z,21.10
2019-06-15T20:25:28.511Z,21.00
2019-06-15T20:28:10.700Z,21.00
2019-06-15T20:30:52.600Z,20.90
2019-06-15T20:33:37.051Z,20.80
2019-06-15T20:36:18.785Z,20.70
2019-06-15T20:39:01.176Z,20.60
2019-06-15T20:41:47.086Z,20.60
2019-06-15T20:44:16.614Z,20.50
2019-06-15T20:47:06.682Z,20.40
2019-06-15T20:49:49.078Z,20.30
2019-06-15T20:52:31.146Z,20.20
2019-06-15T20:55:12.746Z,20.20
2019-06-15T20:57:56.793Z,20.10
2019-06-15T21:00:38.964Z,20.00
2019-06-15T21:03:20.819Z,20.00
2019-06-15T21:06:02.636Z,19.90
2019-06-15T21:08:46.801Z,19.90
2019-06-15T21:11:28.359Z,19.90
2019-06-15T21:14:12.224Z,19.90
2019-06-15T21:16:56.827Z,19.80
2019-06-15T21:19:40.040Z,19.80
2019-06-15T21:22:22.218Z,19.80
2019-06-15T21:25:06.661Z,19.80
2019-06-15T21:27:47.549Z,19.80
2019-06-15T21:30:29.807Z,19.80
2019-06-15T21:33:11.839Z,19.70
2019-06-15T21:35:53.890Z,19.60
2019-06-15T21:38:37.716Z,19.50
2019-06-15T21:41:19.690Z,19.40
2019-06-15T21:44:01.781Z,19.40
2019-06-15T21:46:46.673Z,19.40
2019-06-15T21:49:27.957Z,19.40
2019-06-15T21:52:09.758Z,19.40
2019-06-15T21:54:51.606Z,19.40
2019-06-15T21:57:36.278Z,19.40
2019-06-15T22:00:21.095Z,19.40
2019-06-15T22:03:05.499Z,19.40
2019-06-15T22:06:02.184Z,19.40
2019-06-15T22:08:31.731Z,19.40
2019-06-15T22:11:15.955Z,19.40
2019-06-15T22:13:57.986Z,19.40
2019-06-15T22:16:40.171Z,19.40
2019-06-15T22:19:23.303Z,19.40
2019-06-15T22:22:07.604Z,19.40
2019-06-15T22:24:49.355Z,19.40
2019-06-15T22:27:31.325Z,19.40
2019-06-15T22:30:13.519Z,19.40
2019-06-15T22:32:56.238Z,19.40
2019-06-15T22:35:37.727Z,19.40
2019-06-15T22:38:19.686Z,19.40
2019-06-15T22:41:01.265Z,19.30
2019-06-15T22:43:46.015Z,19.30
2019-06-15T22:46:27.583Z,19.30
2019-06-15T22:49:09.286Z,19.40
2019-06-15T22:51:51.401Z,19.40
2019-06-15T22:54:33.479Z,19.40
2019-06-15T22:57:16.747Z,19.40
2019-06-15T22:59:58.959Z,19.40
2019-06-15T23:02:41.171Z,19.40
2019-06-15T23:05:23.366Z,19.50
2019-06-15T23:08:06.956Z,19.40
2019-06-15T23:10:49.451Z,19.40
2019-06-15T23:13:31.245Z,19.40
2019-06-15T23:16:13.346Z,19.30
2019-06-15T23:18:57.441Z,19.30
2019-06-15T23:21:39.981Z,19.30
2019-06-15T23:24:22.032Z,19.20
2019-06-15T23:27:06.616Z,19.20
2019-06-15T23:29:47.489Z,19.20
2019-06-15T23:32:29.756Z,19.20
2019-06-15T23:35:11.764Z,19.10
2019-06-15T23:37:55.765Z,19.10
2019-06-15T23:40:36.860Z,19.10
2019-06-15T23:43:18.866Z,19.00
2019-06-15T23:46:00.746Z,19.00
2019-06-15T23:48:43.626Z,19.00
2019-06-15T23:51:26.468Z,19.00
2019-06-15T23:54:10.427Z,18.90
2019-06-15T23:56:52.779Z,19.00
2019-06-15T23:59:37.157Z,18.90
